createdAt,value
2022-10-20T00:01:09.409Z,9.04
2022-10-20T00:04:12.223Z,8.97
2022-10-20T00:07:15.273Z,8.94
2022-10-20T00:10:19.115Z,8.86
2022-10-20T00:13:22.139Z,8.76
2022-10-20T00:16:26.554Z,8.88
2022-10-20T00:19:29.297Z,8.85
2022-10-20T00:22:32.912Z,8.81
2022-10-20T00:25:36.372Z,8.83
2022-10-20T00:28:39.483Z,8.76
2022-10-20T00:31:42.900Z,8.70
2022-10-20T00:34:45.594Z,8.49
2022-10-20T00:37:48.317Z,8.36
2022-10-20T00:40:52.130Z,8.33
2022-10-20T00:44:00.829Z,8.34
2022-10-20T00:47:03.564Z,8.28
2022-10-20T00:50:13.241Z,8.26
2022-10-20T00:53:17.670Z,8.36
2022-10-20T00:56:21.540Z,8.38
2022-10-20T00:59:28.642Z,8.41
2022-10-20T01:02:31.695Z,8.40
2022-10-20T01:05:34.674Z,8.36
2022-10-20T01:08:37.532Z,8.39
2022-10-20T01:11:54.535Z,8.31
2022-10-20T01:15:03.387Z,8.33
2022-10-20T01:18:09.793Z,8.30
2022-10-20T01:21:33.567Z,8.30
2022-10-20T01:24:39.545Z,8.24
2022-10-20T01:27:48.570Z,8.26
2022-10-20T01:30:59.970Z,8.21
2022-10-20T01:34:21.898Z,8.06
2022-10-20T01:37:48.756Z,8.10
2022-10-20T01:41:26.570Z,8.15
2022-10-20T01:44:31.722Z,7.98
2022-10-20T01:47:37.141Z,7.94
2022-10-20T01:50:43.015Z,8.03
2022-10-20T01:53:45.722Z,7.97
2022-10-20T01:56:57.516Z,7.96
2022-10-20T02:00:08.840Z,7.86
2022-10-20T02:03:26.831Z,7.81
2022-10-20T02:06:48.461Z,7.89
2022-10-20T02:09:56.115Z,7.81
2022-10-20T02:13:02.764Z,7.72
2022-10-20T02:16:13.438Z,7.71
2022-10-20T02:19:21.023Z,7.63
2022-10-20T02:22:24.500Z,7.56
2022-10-20T02:25:29.927Z,7.50
2022-10-20T02:28:37.782Z,7.59
2022-10-20T02:31:41.699Z,7.57
2022-10-20T02:34:44.597Z,7.61
2022-10-20T02:37:48.103Z,7.53
2022-10-20T02:40:51.438Z,7.41
2022-10-20T02:43:54.244Z,7.39
2022-10-20T02:46:56.954Z,7.42
2022-10-20T02:49:59.922Z,7.40
2022-10-20T02:53:03.681Z,7.34
2022-10-20T02:56:06.766Z,7.39
2022-10-20T02:59:14.183Z,7.23
2022-10-20T03:02:16.956Z,7.15
2022-10-20T03:05:19.675Z,7.13
2022-10-20T03:08:22.638Z,7.08
2022-10-20T03:11:25.787Z,7.07
2022-10-20T03:14:28.773Z,7.07
2022-10-20T03:17:31.605Z,7.05
2022-10-20T03:20:38.756Z,6.92
2022-10-20T03:23:41.622Z,6.94
2022-10-20T03:26:44.330Z,6.88
2022-10-20T03:29:47.501Z,6.83
2022-10-20T03:32:50.407Z,6.82
2022-10-20T03:35:53.139Z,6.76
2022-10-20T03:38:56.003Z,6.70
2022-10-20T03:41:58.773Z,6.69
2022-10-20T03:45:01.546Z,6.67
2022-10-20T03:48:04.577Z,6.60
2022-10-20T03:51:09.789Z,6.54
2022-10-20T03:54:12.615Z,6.70
2022-10-20T03:57:15.324Z,6.51
2022-10-20T04:00:22.498Z,6.35
2022-10-20T04:03:25.313Z,6.23
2022-10-20T04:06:28.302Z,6.26
2022-10-20T04:09:31.067Z,6.21
2022-10-20T04:12:34.254Z,6.26
2022-10-20T04:15:37.360Z,6.28
2022-10-20T04:18:40.159Z,6.13
2022-10-20T04:21:43.284Z,6.14
2022-10-20T04:24:46.000Z,6.13
2022-10-20T04:27:48.773Z,6.04
2022-10-20T04:30:54.731Z,6.00
2022-10-20T04:33:57.449Z,5.95
2022-10-20T04:37:00.226Z,6.00
2022-10-20T04:40:03.624Z,6.05
2022-10-20T04:43:06.590Z,6.01
2022-10-20T04:46:19.178Z,6.08
2022-10-20T04:49:22.299Z,5.96
2022-10-20T04:52:25.138Z,5.84
2022-10-20T04:55:27.944Z,5.80
2022-10-20T04:58:30.859Z,5.64
2022-10-20T05:01:33.777Z,5.59
2022-10-20T05:04:36.651Z,5.54
2022-10-20T05:07:39.563Z,5.44
2022-10-20T05:10:45.780Z,5.33
2022-10-20T05:13:48.666Z,5.35
2022-10-20T05:16:52.275Z,5.35
2022-10-20T05:19:55.108Z,5.27
2022-10-20T05:22:57.939Z,5.26
2022-10-20T05:26:10.542Z,5.43
2022-10-20T05:29:13.847Z,5.52
2022-10-20T05:32:16.796Z,5.57
2022-10-20T05:35:29.596Z,5.69
2022-10-20T05:38:32.771Z,5.79
2022-10-20T05:41:38.710Z,5.82
2022-10-20T05:45:09.489Z,5.85
2022-10-20T05:48:13.278Z,5.93
2022-10-20T05:51:21.580Z,6.03
2022-10-20T05:54:24.584Z,6.04
2022-10-20T05:57:32.284Z,6.08
2022-10-20T06:00:42.386Z,6.14
2022-10-20T06:03:58.948Z,6.36
2022-10-20T06:07:02.209Z,6.63
2022-10-20T06:10:06.003Z,6.68
2022-10-20T06:13:09.574Z,6.78
2022-10-20T06:16:15.577Z,6.95
2022-10-20T06:19:19.230Z,7.04
2022-10-20T06:22:22.557Z,7.19
2022-10-20T06:25:25.516Z,7.30
2022-10-20T06:28:31.102Z,7.50
2022-10-20T06:31:43.136Z,7.74
2022-10-20T06:34:46.055Z,8.06
2022-10-20T06:37:48.837Z,9.60
2022-10-20T06:40:53.068Z,12.43
2022-10-20T06:44:00.514Z,14.30
2022-10-20T06:47:03.483Z,15.94
2022-10-20T06:50:06.975Z,15.64
2022-10-20T06:53:09.854Z,16.71
2022-10-20T06:56:15.756Z,18.13
2022-10-20T06:59:18.644Z,18.45
2022-10-20T07:02:21.979Z,19.26
2022-10-20T07:05:24.746Z,19.23
2022-10-20T07:08:28.893Z,19.75
2022-10-20T07:11:32.590Z,20.67
2022-10-20T07:14:37.476Z,21.14
2022-10-20T07:17:40.160Z,21.54
2022-10-20T07:20:43.513Z,21.01
2022-10-20T07:23:46.787Z,21.15
2022-10-20T07:26:49.784Z,22.66
2022-10-20T07:29:55.716Z,22.83
2022-10-20T07:32:58.919Z,23.16
2022-10-20T07:36:02.281Z,23.59
2022-10-20T07:39:06.643Z,23.34
2022-10-20T07:42:16.138Z,23.01
2022-10-20T07:45:19.651Z,22.34
2022-10-20T07:48:22.767Z,23.85
2022-10-20T07:51:29.367Z,22.91
2022-10-20T07:54:32.191Z,22.58
2022-10-20T07:57:36.287Z,23.66
2022-10-20T08:03:19.458Z,21.61
2022-10-20T08:06:23.273Z,20.96
2022-10-20T08:09:26.784Z,22.09
2022-10-20T08:12:30.101Z,24.26
2022-10-20T08:15:34.150Z,23.11
2022-10-20T08:21:57.704Z,23.90
2022-10-20T08:25:01.840Z,24.10
2022-10-20T08:28:04.719Z,23.23
2022-10-20T08:31:08.715Z,24.06
2022-10-20T08:34:11.757Z,26.95
2022-10-20T08:37:16.366Z,24.22
2022-10-20T08:40:26.237Z,21.59
2022-10-20T08:43:31.946Z,22.37
2022-10-20T08:46:37.571Z,24.02
2022-10-20T08:49:40.561Z,26.54
2022-10-20T08:52:45.163Z,25.93
2022-10-20T08:55:49.239Z,27.16
2022-10-20T08:58:53.043Z,25.41
2022-10-20T09:01:58.070Z,25.87
2022-10-20T09:05:06.757Z,26.66
2022-10-20T09:08:10.026Z,29.05
2022-10-20T09:11:23.998Z,27.17
2022-10-20T09:14:32.773Z,27.12
2022-10-20T09:17:36.112Z,28.54
2022-10-20T09:20:56.216Z,24.20
2022-10-20T09:24:06.327Z,24.25
2022-10-20T09:27:23.156Z,27.58
2022-10-20T09:30:36.030Z,26.20
2022-10-20T09:33:47.264Z,27.97
2022-10-20T09:36:52.681Z,28.89
2022-10-20T09:39:59.681Z,26.41
2022-10-20T09:43:10.429Z,26.33
2022-10-20T09:46:21.031Z,26.41
2022-10-20T09:49:28.054Z,26.78
2022-10-20T09:52:38.624Z,27.78
2022-10-20T09:55:47.625Z,27.94
2022-10-20T09:58:50.470Z,26.70
2022-10-20T10:01:59.987Z,27.12
2022-10-20T10:05:21.181Z,27.71
2022-10-20T10:08:42.046Z,29.07
2022-10-20T10:11:45.167Z,30.17
2022-10-20T10:14:58.963Z,30.53
2022-10-20T10:18:19.930Z,29.60
2022-10-20T10:21:23.817Z,30.31
2022-10-20T10:24:39.446Z,30.37
2022-10-20T10:27:58.817Z,29.04
2022-10-20T10:31:26.828Z,30.63
2022-10-20T10:34:48.358Z,31.11
2022-10-20T10:37:52.771Z,29.01
2022-10-20T10:41:25.644Z,27.72
2022-10-20T10:44:43.592Z,31.04
2022-10-20T10:47:52.539Z,30.98
2022-10-20T10:51:01.434Z,31.70
2022-10-20T10:54:22.875Z,30.73
2022-10-20T10:57:44.077Z,31.59
2022-10-20T11:01:20.052Z,29.37
2022-10-20T11:04:38.001Z,29.69
2022-10-20T11:08:08.249Z,30.04
2022-10-20T11:11:32.788Z,30.58
2022-10-20T11:14:54.663Z,30.72
2022-10-20T11:18:12.907Z,30.66
2022-10-20T11:21:43.532Z,31.00
2022-10-20T11:24:46.226Z,28.19
2022-10-20T11:27:50.356Z,30.42
2022-10-20T11:30:54.713Z,30.85
2022-10-20T11:34:05.192Z,29.24
2022-10-20T11:37:18.190Z,29.87
2022-10-20T11:40:27.058Z,29.96
2022-10-20T11:43:40.441Z,29.29
2022-10-20T11:46:51.004Z,29.83
2022-10-20T11:49:54.437Z,31.89
2022-10-20T11:53:26.888Z,30.82
2022-10-20T11:56:43.093Z,31.26
2022-10-20T12:00:04.529Z,30.28
2022-10-20T12:03:36.928Z,28.34
2022-10-20T12:06:57.506Z,28.25
2022-10-20T12:10:08.014Z,28.81
2022-10-20T12:13:36.936Z,30.66
2022-10-20T12:16:51.980Z,31.79
2022-10-20T12:20:28.823Z,28.85
2022-10-20T12:23:47.284Z,30.04
2022-10-20T12:27:11.291Z,31.05
2022-10-20T12:30:38.975Z,28.20
2022-10-20T12:33:50.686Z,27.69
2022-10-20T12:37:07.971Z,27.36
2022-10-20T12:40:13.764Z,28.55
2022-10-20T12:43:50.331Z,28.55
2022-10-20T12:47:08.955Z,28.80
2022-10-20T12:50:27.053Z,28.60
2022-10-20T12:53:31.228Z,27.28
2022-10-20T12:57:05.789Z,26.13
2022-10-20T13:00:27.625Z,25.16
2022-10-20T13:03:43.787Z,26.76
2022-10-20T13:06:46.595Z,26.96
2022-10-20T13:09:59.007Z,25.45
2022-10-20T13:13:04.541Z,25.57
2022-10-20T13:16:17.943Z,25.55
2022-10-20T13:19:32.961Z,25.57
2022-10-20T13:22:38.450Z,24.40
2022-10-20T13:25:51.422Z,24.79
2022-10-20T13:28:58.693Z,25.74
2022-10-20T13:32:04.720Z,24.10
2022-10-20T13:35:30.270Z,25.18
2022-10-20T13:38:40.955Z,25.23
2022-10-20T13:41:54.160Z,26.40
2022-10-20T13:45:03.386Z,25.28
2022-10-20T13:48:34.517Z,25.49
2022-10-20T13:51:48.328Z,24.42
2022-10-20T13:54:52.273Z,24.55
2022-10-20T13:57:57.744Z,25.02
2022-10-20T14:01:06.710Z,23.95
2022-10-20T14:04:29.576Z,24.57
2022-10-20T14:07:38.183Z,23.28
2022-10-20T14:10:59.786Z,24.76
2022-10-20T14:14:03.262Z,21.67
2022-10-20T14:17:08.134Z,23.28
2022-10-20T14:20:20.301Z,24.01
2022-10-20T14:23:25.365Z,22.93
2022-10-20T14:26:29.203Z,22.18
2022-10-20T14:29:57.656Z,20.67
2022-10-20T14:33:01.049Z,18.63
2022-10-20T14:36:04.809Z,17.58
2022-10-20T14:39:21.213Z,17.03
2022-10-20T14:42:28.266Z,16.19
2022-10-20T14:48:45.304Z,15.78
2022-10-20T14:51:55.911Z,15.70
2022-10-20T14:54:58.832Z,15.56
2022-10-20T14:58:02.207Z,15.59
2022-10-20T15:01:26.464Z,15.65
2022-10-20T15:04:32.209Z,15.35
2022-10-20T15:07:47.075Z,15.35
2022-10-20T15:10:50.534Z,15.29
2022-10-20T15:13:55.655Z,15.16
2022-10-20T15:16:58.381Z,15.08
2022-10-20T15:20:35.207Z,14.98
2022-10-20T15:23:37.918Z,14.87
2022-10-20T15:26:40.783Z,14.82
2022-10-20T15:29:49.638Z,14.65
2022-10-20T15:32:54.149Z,14.45
2022-10-20T15:40:08.837Z,14.13
2022-10-20T15:43:14.541Z,13.92
2022-10-20T15:46:18.905Z,13.74
2022-10-20T15:49:22.888Z,13.56
2022-10-20T15:52:32.198Z,13.48
2022-10-20T15:55:38.102Z,13.21
2022-10-20T15:58:40.860Z,13.04
2022-10-20T16:01:43.938Z,12.89
2022-10-20T16:04:46.792Z,12.73
2022-10-20T16:07:54.290Z,12.59
2022-10-20T16:11:00.534Z,12.37
2022-10-20T16:14:23.143Z,12.22
2022-10-20T16:17:46.919Z,12.01
2022-10-20T16:21:10.148Z,11.85
2022-10-20T16:24:32.707Z,11.65
2022-10-20T16:27:55.311Z,11.47
2022-10-20T16:31:18.185Z,11.32
2022-10-20T16:34:20.883Z,11.24
2022-10-20T16:37:23.762Z,11.16
2022-10-20T16:40:26.812Z,11.04
2022-10-20T16:43:30.100Z,10.89
2022-10-20T16:46:32.885Z,10.75
2022-10-20T16:49:35.641Z,10.59
2022-10-20T16:52:38.414Z,10.49
2022-10-20T16:55:41.606Z,10.36
2022-10-20T16:58:44.434Z,10.23
2022-10-20T17:01:47.152Z,10.18
2022-10-20T17:04:50.319Z,10.15
2022-10-20T17:07:55.435Z,10.14
2022-10-20T17:11:03.630Z,10.05
2022-10-20T17:14:06.532Z,10.05
2022-10-20T17:17:09.637Z,9.95
2022-10-20T17:20:12.889Z,9.85
2022-10-20T17:23:15.835Z,9.80
2022-10-20T17:26:21.801Z,9.71
2022-10-20T17:29:26.234Z,9.66
2022-10-20T17:32:29.413Z,9.60
2022-10-20T17:35:32.373Z,9.75
2022-10-20T17:38:35.950Z,9.77
2022-10-20T17:41:40.023Z,9.72
2022-10-20T17:44:42.957Z,9.67
2022-10-20T17:47:46.042Z,9.49
2022-10-20T17:50:58.271Z,9.21
2022-10-20T17:54:01.240Z,9.14
2022-10-20T17:57:04.430Z,9.14
2022-10-20T18:00:13.043Z,9.11
2022-10-20T18:03:19.322Z,9.02
2022-10-20T18:06:23.902Z,8.96
2022-10-20T18:09:26.924Z,8.86
2022-10-20T18:12:29.957Z,8.81
2022-10-20T18:15:33.178Z,8.75
2022-10-20T18:18:37.010Z,8.67
2022-10-20T18:21:40.082Z,8.59
2022-10-20T18:24:43.146Z,8.47
2022-10-20T18:27:50.984Z,8.42
2022-10-20T18:30:54.989Z,8.35
2022-10-20T18:34:06.706Z,8.34
2022-10-20T18:37:10.412Z,8.24
2022-10-20T18:40:13.241Z,8.25
2022-10-20T18:43:16.042Z,8.33
2022-10-20T18:46:19.370Z,8.33
2022-10-20T18:49:22.593Z,8.16
2022-10-20T18:52:25.993Z,8.04
2022-10-20T18:55:29.147Z,7.92
2022-10-20T18:58:35.181Z,7.85
2022-10-20T19:01:39.945Z,7.85
2022-10-20T19:04:42.870Z,7.86
2022-10-20T19:07:45.825Z,7.86
2022-10-20T19:10:48.811Z,7.95
2022-10-20T19:13:52.980Z,7.97
2022-10-20T19:16:55.997Z,7.99
2022-10-20T19:19:58.930Z,7.93
2022-10-20T19:23:02.454Z,7.81
2022-10-20T19:26:07.090Z,7.74
2022-10-20T19:29:14.774Z,7.62
2022-10-20T19:32:17.514Z,7.64
2022-10-20T19:35:20.997Z,7.51
2022-10-20T19:38:24.007Z,7.45
2022-10-20T19:41:27.340Z,7.32
2022-10-20T19:44:30.616Z,7.23
2022-10-20T19:47:33.684Z,7.16
2022-10-20T19:50:36.661Z,7.10
2022-10-20T19:53:40.001Z,7.11
2022-10-20T19:56:43.512Z,7.12
2022-10-20T19:59:46.241Z,7.12
2022-10-20T20:02:49.286Z,7.04
2022-10-20T20:06:02.922Z,7.10
2022-10-20T20:09:08.780Z,7.14
2022-10-20T20:12:11.847Z,7.17
2022-10-20T20:20:41.631Z,7.00
2022-10-20T20:29:16.781Z,6.92
2022-10-20T20:32:19.808Z,6.81
2022-10-20T20:35:22.736Z,6.76
2022-10-20T20:38:26.341Z,6.69
2022-10-20T20:41:31.491Z,6.73
2022-10-20T20:44:34.249Z,6.69
2022-10-20T20:47:37.404Z,6.54
2022-10-20T20:50:40.358Z,6.44
2022-10-20T20:53:43.118Z,6.42
2022-10-20T20:56:45.802Z,6.44
2022-10-20T20:59:49.034Z,6.39
2022-10-20T21:02:51.706Z,6.32
2022-10-20T21:05:54.421Z,6.34
2022-10-20T21:08:57.580Z,6.25
2022-10-20T21:12:01.609Z,6.25
2022-10-20T21:15:04.795Z,6.21
2022-10-20T21:18:07.522Z,6.24
2022-10-20T21:21:19.787Z,6.40
2022-10-20T21:24:22.780Z,6.45
2022-10-20T21:27:25.506Z,6.37
2022-10-20T21:30:28.349Z,6.19
2022-10-20T21:33:31.165Z,6.12
2022-10-20T21:36:35.940Z,6.07
2022-10-20T21:39:38.732Z,6.00
2022-10-20T21:42:41.466Z,5.93
2022-10-20T21:45:44.346Z,5.90
2022-10-20T21:48:49.335Z,5.86
2022-10-20T21:51:55.136Z,5.86
2022-10-20T21:54:57.817Z,5.89
2022-10-20T21:58:00.517Z,5.94
2022-10-20T22:01:18.413Z,5.87
2022-10-20T22:04:24.278Z,6.12
2022-10-20T22:07:28.651Z,6.12
2022-10-20T22:10:31.345Z,6.09
2022-10-20T22:13:34.606Z,5.93
2022-10-20T22:16:39.874Z,5.88
2022-10-20T22:19:42.808Z,5.87
2022-10-20T22:22:45.537Z,5.82
2022-10-20T22:25:52.361Z,5.79
2022-10-20T22:28:56.035Z,5.80
2022-10-20T22:31:58.765Z,5.92
2022-10-20T22:35:01.517Z,5.98
2022-10-20T22:38:04.298Z,6.05
2022-10-20T22:41:07.203Z,6.06
2022-10-20T22:44:10.063Z,6.01
2022-10-20T22:47:12.925Z,5.98
2022-10-20T22:50:15.714Z,5.81
2022-10-20T22:53:18.547Z,5.63
2022-10-20T22:56:22.635Z,5.49
2022-10-20T22:59:25.365Z,5.39
2022-10-20T23:02:29.710Z,5.34
2022-10-20T23:05:32.546Z,5.40
2022-10-20T23:08:43.300Z,5.45
2022-10-20T23:11:46.126Z,5.40
2022-10-20T23:14:48.941Z,5.48
2022-10-20T23:17:51.651Z,5.47
2022-10-20T23:20:57.430Z,5.43
2022-10-20T23:24:03.166Z,5.47
2022-10-20T23:27:06.846Z,5.47
2022-10-20T23:30:10.140Z,5.32
2022-10-20T23:33:13.477Z,5.26
2022-10-20T23:36:17.242Z,5.19
2022-10-20T23:39:19.949Z,5.10
2022-10-20T23:42:22.894Z,5.04
2022-10-20T23:45:25.643Z,5.08
2022-10-20T23:48:28.421Z,5.11
2022-10-20T23:51:31.395Z,5.02
2022-10-20T23:54:34.193Z,5.04
2022-10-20T23:57:37.282Z,4.93
